sensor_id;sensor_type;location;lat;lon;timestamp;temperature;humidity
71237;DHT22;58984;51.960;5.582;2023-07-13T00:01:38;25.20;48.30
71237;DHT22;58984;51.960;5.582;2023-07-13T00:04:04;25.20;48.30
71237;DHT22;58984;51.960;5.582;2023-07-13T00:06:30;25.20;48.30
71237;DHT22;58984;51.960;5.582;2023-07-13T00:08:59;25.10;48.20
71237;DHT22;58984;51.960;5.582;2023-07-13T00:11:24;25.10;48.30
71237;DHT22;58984;51.960;5.582;2023-07-13T00:13:51;25.10;48.30
71237;DHT22;58984;51.960;5.582;2023-07-13T00:16:16;25.10;48.30
71237;DHT22;58984;51.960;5.582;2023-07-13T00:18:44;25.10;48.30
71237;DHT22;58984;51.960;5.582;2023-07-13T00:21:10;25.10;48.30
71237;DHT22;58984;51.960;5.582;2023-07-13T00:23:39;25.00;48.30
71237;DHT22;58984;51.960;5.582;2023-07-13T00:26:07;25.00;48.30
71237;DHT22;58984;51.960;5.582;2023-07-13T00:28:37;25.00;48.40
71237;DHT22;58984;51.960;5.582;2023-07-13T00:31:02;25.00;48.40
71237;DHT22;58984;51.960;5.582;2023-07-13T00:33:28;25.00;48.40
71237;DHT22;58984;51.960;5.582;2023-07-13T00:35:57;25.00;48.40
71237;DHT22;58984;51.960;5.582;2023-07-13T00:38:24;24.90;48.30
71237;DHT22;58984;51.960;5.582;2023-07-13T00:40:50;24.90;48.40
71237;DHT22;58984;51.960;5.582;2023-07-13T00:43:21;24.90;48.40
71237;DHT22;58984;51.960;5.582;2023-07-13T00:48:20;24.90;48.40
71237;DHT22;58984;51.960;5.582;2023-07-13T00:50:49;24.90;48.50
71237;DHT22;58984;51.960;5.582;2023-07-13T00:53:16;24.90;48.40
71237;DHT22;58984;51.960;5.582;2023-07-13T00:55:42;24.90;48.50
71237;DHT22;58984;51.960;5.582;2023-07-13T00:58:09;24.90;48.50
71237;DHT22;58984;51.960;5.582;2023-07-13T01:00:36;24.80;48.40
71237;DHT22;58984;51.960;5.582;2023-07-13T01:03:03;24.80;48.50
71237;DHT22;58984;51.960;5.582;2023-07-13T01:05:31;24.80;48.50
71237;DHT22;58984;51.960;5.582;2023-07-13T01:07:59;24.80;48.50
71237;DHT22;58984;51.960;5.582;2023-07-13T01:10:26;24.80;48.50
71237;DHT22;58984;51.960;5.582;2023-07-13T01:12:53;24.80;48.50
71237;DHT22;58984;51.960;5.582;2023-07-13T01:15:39;24.70;48.50
71237;DHT22;58984;51.960;5.582;2023-07-13T01:18:09;24.60;48.50
71237;DHT22;58984;51.960;5.582;2023-07-13T01:20:36;24.70;48.50
71237;DHT22;58984;51.960;5.582;2023-07-13T01:23:07;24.70;48.50
71237;DHT22;58984;51.960;5.582;2023-07-13T01:25:37;24.60;48.50
71237;DHT22;58984;51.960;5.582;2023-07-13T01:28:05;24.60;48.50
71237;DHT22;58984;51.960;5.582;2023-07-13T01:30:31;24.60;48.50
71237;DHT22;58984;51.960;5.582;2023-07-13T01:32:57;24.60;48.50
71237;DHT22;58984;51.960;5.582;2023-07-13T01:35:23;24.60;48.60
71237;DHT22;58984;51.960;5.582;2023-07-13T01:37:51;24.60;48.60
71237;DHT22;58984;51.960;5.582;2023-07-13T01:40:16;24.60;48.60
71237;DHT22;58984;51.960;5.582;2023-07-13T01:42:42;24.60;48.70
71237;DHT22;58984;51.960;5.582;2023-07-13T01:45:09;24.60;48.70
71237;DHT22;58984;51.960;5.582;2023-07-13T01:47:34;24.50;48.60
71237;DHT22;58984;51.960;5.582;2023-07-13T01:50:00;24.60;48.70
71237;DHT22;58984;51.960;5.582;2023-07-13T01:52:26;24.50;48.70
71237;DHT22;58984;51.960;5.582;2023-07-13T01:54:51;24.50;48.70
71237;DHT22;58984;51.960;5.582;2023-07-13T01:57:17;24.50;48.80
71237;DHT22;58984;51.960;5.582;2023-07-13T01:59:42;24.50;48.80
71237;DHT22;58984;51.960;5.582;2023-07-13T02:02:08;24.50;48.80
71237;DHT22;58984;51.960;5.582;2023-07-13T02:04:34;24.50;48.90
71237;DHT22;58984;51.960;5.582;2023-07-13T02:07:00;24.40;48.90
71237;DHT22;58984;51.960;5.582;2023-07-13T02:09:26;24.40;48.90
71237;DHT22;58984;51.960;5.582;2023-07-13T02:11:51;24.40;48.90
71237;DHT22;58984;51.960;5.582;2023-07-13T02:14:17;24.40;48.90
71237;DHT22;58984;51.960;5.582;2023-07-13T02:16:43;24.40;48.90
71237;DHT22;58984;51.960;5.582;2023-07-13T02:19:08;24.40;48.90
71237;DHT22;58984;51.960;5.582;2023-07-13T02:21:34;24.40;48.90
71237;DHT22;58984;51.960;5.582;2023-07-13T02:24:00;24.40;48.90
71237;DHT22;58984;51.960;5.582;2023-07-13T02:26:26;24.30;48.90
71237;DHT22;58984;51.960;5.582;2023-07-13T02:28:52;24.30;49.00
71237;DHT22;58984;51.960;5.582;2023-07-13T02:31:18;24.30;49.00
71237;DHT22;58984;51.960;5.582;2023-07-13T02:33:44;24.30;49.10
71237;DHT22;58984;51.960;5.582;2023-07-13T02:36:10;24.30;49.10
71237;DHT22;58984;51.960;5.582;2023-07-13T02:38:36;24.30;49.20
71237;DHT22;58984;51.960;5.582;2023-07-13T02:41:07;24.20;49.20
71237;DHT22;58984;51.960;5.582;2023-07-13T02:43:34;24.20;49.20
71237;DHT22;58984;51.960;5.582;2023-07-13T02:46:01;24.20;49.20
71237;DHT22;58984;51.960;5.582;2023-07-13T02:48:36;24.20;49.20
71237;DHT22;58984;51.960;5.582;2023-07-13T02:51:02;24.30;49.30
71237;DHT22;58984;51.960;5.582;2023-07-13T02:53:28;24.30;49.10
71237;DHT22;58984;51.960;5.582;2023-07-13T02:55:53;24.20;49.20
71237;DHT22;58984;51.960;5.582;2023-07-13T02:58:19;24.20;49.30
71237;DHT22;58984;51.960;5.582;2023-07-13T03:00:46;24.20;49.40
71237;DHT22;58984;51.960;5.582;2023-07-13T03:03:13;24.10;49.40
71237;DHT22;58984;51.960;5.582;2023-07-13T03:05:41;24.10;49.40
71237;DHT22;58984;51.960;5.582;2023-07-13T03:08:08;24.10;49.50
71237;DHT22;58984;51.960;5.582;2023-07-13T03:10:34;24.10;49.50
71237;DHT22;58984;51.960;5.582;2023-07-13T03:12:59;24.10;49.50
71237;DHT22;58984;51.960;5.582;2023-07-13T03:15:25;24.00;49.50
71237;DHT22;58984;51.960;5.582;2023-07-13T03:17:52;24.10;50.30
71237;DHT22;58984;51.960;5.582;2023-07-13T03:20:18;24.00;49.60
71237;DHT22;58984;51.960;5.582;2023-07-13T03:22:44;24.00;50.30
71237;DHT22;58984;51.960;5.582;2023-07-13T03:25:10;24.00;49.70
71237;DHT22;58984;51.960;5.582;2023-07-13T03:27:36;24.00;49.70
71237;DHT22;58984;51.960;5.582;2023-07-13T03:30:06;24.00;49.80
71237;DHT22;58984;51.960;5.582;2023-07-13T03:32:32;24.00;49.80
71237;DHT22;58984;51.960;5.582;2023-07-13T03:34:57;24.00;49.80
71237;DHT22;58984;51.960;5.582;2023-07-13T03:37:24;24.00;49.90
71237;DHT22;58984;51.960;5.582;2023-07-13T03:39:50;23.90;49.80
71237;DHT22;58984;51.960;5.582;2023-07-13T03:42:15;23.90;49.90
71237;DHT22;58984;51.960;5.582;2023-07-13T03:44:42;23.90;49.90
71237;DHT22;58984;51.960;5.582;2023-07-13T03:47:07;23.90;50.00
71237;DHT22;58984;51.960;5.582;2023-07-13T03:49:34;23.90;50.10
71237;DHT22;58984;51.960;5.582;2023-07-13T03:52:00;23.90;50.10
71237;DHT22;58984;51.960;5.582;2023-07-13T03:54:26;23.90;50.10
71237;DHT22;58984;51.960;5.582;2023-07-13T03:56:52;23.80;50.10
71237;DHT22;58984;51.960;5.582;2023-07-13T03:59:18;23.80;50.10
71237;DHT22;58984;51.960;5.582;2023-07-13T04:01:44;23.80;50.10
71237;DHT22;58984;51.960;5.582;2023-07-13T04:04:10;23.80;50.20
71237;DHT22;58984;51.960;5.582;2023-07-13T04:06:36;23.80;50.20
71237;DHT22;58984;51.960;5.582;2023-07-13T04:09:03;23.80;50.30
71237;DHT22;58984;51.960;5.582;2023-07-13T04:11:33;23.80;50.40
71237;DHT22;58984;51.960;5.582;2023-07-13T04:14:01;23.80;50.40
71237;DHT22;58984;51.960;5.582;2023-07-13T04:16:28;23.80;50.40
71237;DHT22;58984;51.960;5.582;2023-07-13T04:18:55;23.80;50.50
71237;DHT22;58984;51.960;5.582;2023-07-13T04:21:26;23.70;50.50
71237;DHT22;58984;51.960;5.582;2023-07-13T04:23:52;23.70;50.50
71237;DHT22;58984;51.960;5.582;2023-07-13T04:26:18;23.70;50.50
71237;DHT22;58984;51.960;5.582;2023-07-13T04:28:47;23.70;50.60
71237;DHT22;58984;51.960;5.582;2023-07-13T04:31:16;23.70;50.70
71237;DHT22;58984;51.960;5.582;2023-07-13T04:33:41;23.60;50.70
71237;DHT22;58984;51.960;5.582;2023-07-13T04:36:11;23.70;50.70
71237;DHT22;58984;51.960;5.582;2023-07-13T04:38:37;23.70;50.80
71237;DHT22;58984;51.960;5.582;2023-07-13T04:41:06;23.70;50.70
71237;DHT22;58984;51.960;5.582;2023-07-13T04:43:33;23.70;50.90
71237;DHT22;58984;51.960;5.582;2023-07-13T04:46:09;23.60;51.00
71237;DHT22;58984;51.960;5.582;2023-07-13T04:48:37;23.60;51.00
71237;DHT22;58984;51.960;5.582;2023-07-13T04:51:03;23.70;51.00
71237;DHT22;58984;51.960;5.582;2023-07-13T04:53:30;23.60;51.00
71237;DHT22;58984;51.960;5.582;2023-07-13T04:55:56;23.60;51.00
71237;DHT22;58984;51.960;5.582;2023-07-13T04:58:23;23.60;51.10
71237;DHT22;58984;51.960;5.582;2023-07-13T05:00:49;23.60;51.20
71237;DHT22;58984;51.960;5.582;2023-07-13T05:03:15;23.60;51.20
71237;DHT22;58984;51.960;5.582;2023-07-13T05:05:43;23.60;51.20
71237;DHT22;58984;51.960;5.582;2023-07-13T05:08:09;23.60;51.20
71237;DHT22;58984;51.960;5.582;2023-07-13T05:10:35;23.60;51.30
71237;DHT22;58984;51.960;5.582;2023-07-13T05:13:01;23.60;51.30
71237;DHT22;58984;51.960;5.582;2023-07-13T05:17:54;23.60;51.00
71237;DHT22;58984;51.960;5.582;2023-07-13T05:20:20;23.60;51.40
71237;DHT22;58984;51.960;5.582;2023-07-13T05:22:48;23.60;51.40
71237;DHT22;58984;51.960;5.582;2023-07-13T05:25:14;23.60;51.40
71237;DHT22;58984;51.960;5.582;2023-07-13T05:27:40;23.60;51.40
71237;DHT22;58984;51.960;5.582;2023-07-13T05:30:06;23.60;51.40
71237;DHT22;58984;51.960;5.582;2023-07-13T05:32:32;23.60;51.50
71237;DHT22;58984;51.960;5.582;2023-07-13T05:35:01;23.60;51.50
71237;DHT22;58984;51.960;5.582;2023-07-13T05:37:28;23.60;51.50
71237;DHT22;58984;51.960;5.582;2023-07-13T05:39:53;23.60;51.70
71237;DHT22;58984;51.960;5.582;2023-07-13T05:42:19;23.60;51.80
71237;DHT22;58984;51.960;5.582;2023-07-13T05:44:45;23.60;51.90
71237;DHT22;58984;51.960;5.582;2023-07-13T05:47:13;23.60;51.90
71237;DHT22;58984;51.960;5.582;2023-07-13T05:49:40;23.60;52.00
71237;DHT22;58984;51.960;5.582;2023-07-13T05:52:06;23.60;52.00
71237;DHT22;58984;51.960;5.582;2023-07-13T05:54:32;23.60;52.10
71237;DHT22;58984;51.960;5.582;2023-07-13T05:56:58;23.60;52.10
71237;DHT22;58984;51.960;5.582;2023-07-13T05:59:24;23.60;52.10
71237;DHT22;58984;51.960;5.582;2023-07-13T06:01:50;23.60;52.10
71237;DHT22;58984;51.960;5.582;2023-07-13T06:04:18;23.60;52.10
71237;DHT22;58984;51.960;5.582;2023-07-13T06:06:43;23.60;52.20
71237;DHT22;58984;51.960;5.582;2023-07-13T06:09:09;23.60;52.30
71237;DHT22;58984;51.960;5.582;2023-07-13T06:11:35;23.60;52.20
71237;DHT22;58984;51.960;5.582;2023-07-13T06:14:00;23.60;52.30
71237;DHT22;58984;51.960;5.582;2023-07-13T06:16:29;23.70;52.40
71237;DHT22;58984;51.960;5.582;2023-07-13T06:19:04;23.60;52.30
71237;DHT22;58984;51.960;5.582;2023-07-13T06:21:32;23.60;52.40
71237;DHT22;58984;51.960;5.582;2023-07-13T06:23:58;23.70;52.50
71237;DHT22;58984;51.960;5.582;2023-07-13T06:26:24;23.70;52.60
71237;DHT22;58984;51.960;5.582;2023-07-13T06:28:50;23.70;52.60
71237;DHT22;58984;51.960;5.582;2023-07-13T06:31:15;23.70;52.70
71237;DHT22;58984;51.960;5.582;2023-07-13T06:33:42;23.70;52.60
71237;DHT22;58984;51.960;5.582;2023-07-13T06:36:10;23.70;52.70
71237;DHT22;58984;51.960;5.582;2023-07-13T06:38:36;23.70;52.80
71237;DHT22;58984;51.960;5.582;2023-07-13T06:41:02;23.70;52.80
71237;DHT22;58984;51.960;5.582;2023-07-13T06:43:31;23.70;52.80
71237;DHT22;58984;51.960;5.582;2023-07-13T06:48:24;23.70;52.30
71237;DHT22;58984;51.960;5.582;2023-07-13T06:50:50;23.80;53.00
71237;DHT22;58984;51.960;5.582;2023-07-13T06:53:18;23.70;52.90
71237;DHT22;58984;51.960;5.582;2023-07-13T06:55:44;23.80;53.00
71237;DHT22;58984;51.960;5.582;2023-07-13T06:58:11;23.80;53.10
71237;DHT22;58984;51.960;5.582;2023-07-13T07:00:37;23.80;53.00
71237;DHT22;58984;51.960;5.582;2023-07-13T07:03:08;23.80;53.00
71237;DHT22;58984;51.960;5.582;2023-07-13T07:05:34;23.80;53.20
71237;DHT22;58984;51.960;5.582;2023-07-13T07:07:59;23.80;53.20
71237;DHT22;58984;51.960;5.582;2023-07-13T07:10:29;23.80;53.10
71237;DHT22;58984;51.960;5.582;2023-07-13T07:12:55;23.80;53.20
71237;DHT22;58984;51.960;5.582;2023-07-13T07:15:21;23.90;53.20
71237;DHT22;58984;51.960;5.582;2023-07-13T07:17:47;23.80;53.20
71237;DHT22;58984;51.960;5.582;2023-07-13T07:20:13;23.90;53.30
71237;DHT22;58984;51.960;5.582;2023-07-13T07:22:41;23.80;53.20
71237;DHT22;58984;51.960;5.582;2023-07-13T07:25:12;23.90;53.20
71237;DHT22;58984;51.960;5.582;2023-07-13T07:27:38;23.80;53.30
71237;DHT22;58984;51.960;5.582;2023-07-13T07:30:05;23.90;53.60
71237;DHT22;58984;51.960;5.582;2023-07-13T07:32:31;23.90;53.50
71237;DHT22;58984;51.960;5.582;2023-07-13T07:34:57;23.90;53.40
71237;DHT22;58984;51.960;5.582;2023-07-13T07:37:29;23.90;53.50
71237;DHT22;58984;51.960;5.582;2023-07-13T07:39:54;23.90;53.50
71237;DHT22;58984;51.960;5.582;2023-07-13T07:42:20;24.00;53.50
71237;DHT22;58984;51.960;5.582;2023-07-13T07:44:46;24.00;53.50
71237;DHT22;58984;51.960;5.582;2023-07-13T07:47:12;24.00;53.60
71237;DHT22;58984;51.960;5.582;2023-07-13T07:49:37;24.00;53.50
71237;DHT22;58984;51.960;5.582;2023-07-13T07:52:07;24.00;53.50
71237;DHT22;58984;51.960;5.582;2023-07-13T07:54:33;24.00;53.50
71237;DHT22;58984;51.960;5.582;2023-07-13T07:56:59;24.00;53.40
71237;DHT22;58984;51.960;5.582;2023-07-13T07:59:24;24.10;53.40
71237;DHT22;58984;51.960;5.582;2023-07-13T08:01:50;24.10;53.40
71237;DHT22;58984;51.960;5.582;2023-07-13T08:04:19;24.10;53.50
71237;DHT22;58984;51.960;5.582;2023-07-13T08:06:44;24.10;53.60
71237;DHT22;58984;51.960;5.582;2023-07-13T08:09:10;24.20;53.60
71237;DHT22;58984;51.960;5.582;2023-07-13T08:11:36;24.20;53.60
71237;DHT22;58984;51.960;5.582;2023-07-13T08:14:02;24.20;53.50
71237;DHT22;58984;51.960;5.582;2023-07-13T08:16:30;24.20;53.50
71237;DHT22;58984;51.960;5.582;2023-07-13T08:18:58;24.20;53.50
71237;DHT22;58984;51.960;5.582;2023-07-13T08:21:24;24.30;53.50
71237;DHT22;58984;51.960;5.582;2023-07-13T08:23:49;24.30;53.50
71237;DHT22;58984;51.960;5.582;2023-07-13T08:26:15;24.30;53.50
71237;DHT22;58984;51.960;5.582;2023-07-13T08:28:41;24.30;53.70
71237;DHT22;58984;51.960;5.582;2023-07-13T08:31:07;24.30;53.60
71237;DHT22;58984;51.960;5.582;2023-07-13T08:33:35;24.30;53.60
71237;DHT22;58984;51.960;5.582;2023-07-13T08:36:01;24.40;53.60
71237;DHT22;58984;51.960;5.582;2023-07-13T08:38:27;24.30;53.40
71237;DHT22;58984;51.960;5.582;2023-07-13T08:40:56;24.40;53.50
71237;DHT22;58984;51.960;5.582;2023-07-13T08:43:28;24.30;53.20
71237;DHT22;58984;51.960;5.582;2023-07-13T08:46:12;24.40;53.20
71237;DHT22;58984;51.960;5.582;2023-07-13T08:48:43;24.40;53.20
71237;DHT22;58984;51.960;5.582;2023-07-13T08:54:08;24.50;53.20
71237;DHT22;58984;51.960;5.582;2023-07-13T08:56:35;24.50;53.20
71237;DHT22;58984;51.960;5.582;2023-07-13T08:59:15;24.60;53.10
71237;DHT22;58984;51.960;5.582;2023-07-13T09:05:29;24.60;53.30
71237;DHT22;58984;51.960;5.582;2023-07-13T09:10:52;24.60;53.10
71237;DHT22;58984;51.960;5.582;2023-07-13T09:15:59;24.60;53.10
71237;DHT22;58984;51.960;5.582;2023-07-13T09:18:28;24.70;53.00
71237;DHT22;58984;51.960;5.582;2023-07-13T09:23:53;24.60;53.20
71237;DHT22;58984;51.960;5.582;2023-07-13T09:26:23;24.70;53.20
71237;DHT22;58984;51.960;5.582;2023-07-13T09:28:54;24.70;53.20
71237;DHT22;58984;51.960;5.582;2023-07-13T09:31:42;24.70;53.50
71237;DHT22;58984;51.960;5.582;2023-07-13T09:34:11;24.60;53.90
71237;DHT22;58984;51.960;5.582;2023-07-13T09:36:37;24.70;54.00
71237;DHT22;58984;51.960;5.582;2023-07-13T09:39:32;24.70;54.20
71237;DHT22;58984;51.960;5.582;2023-07-13T09:44:39;24.70;54.30
71237;DHT22;58984;51.960;5.582;2023-07-13T09:47:23;24.70;54.20
71237;DHT22;58984;51.960;5.582;2023-07-13T09:50:36;24.60;53.90
71237;DHT22;58984;51.960;5.582;2023-07-13T09:52:47;24.70;53.90
71237;DHT22;58984;51.960;5.582;2023-07-13T09:55:25;24.80;54.00
71237;DHT22;58984;51.960;5.582;2023-07-13T09:57:51;24.70;54.00
71237;DHT22;58984;51.960;5.582;2023-07-13T10:00:36;24.90;54.00
71237;DHT22;58984;51.960;5.582;2023-07-13T10:03:21;24.80;54.10
71237;DHT22;58984;51.960;5.582;2023-07-13T10:05:50;24.90;54.20
71237;DHT22;58984;51.960;5.582;2023-07-13T10:08:27;24.90;54.50
71237;DHT22;58984;51.960;5.582;2023-07-13T10:11:01;24.90;54.00
71237;DHT22;58984;51.960;5.582;2023-07-13T10:13:37;25.00;54.20
71237;DHT22;58984;51.960;5.582;2023-07-13T10:16:06;25.00;54.00
71237;DHT22;58984;51.960;5.582;2023-07-13T10:21:13;25.10;54.00
71237;DHT22;58984;51.960;5.582;2023-07-13T10:23:40;25.10;53.90
71237;DHT22;58984;51.960;5.582;2023-07-13T10:26:14;25.10;53.90
71237;DHT22;58984;51.960;5.582;2023-07-13T10:28:41;25.10;53.90
71237;DHT22;58984;51.960;5.582;2023-07-13T10:31:13;25.20;53.90
71237;DHT22;58984;51.960;5.582;2023-07-13T10:33:39;25.20;53.90
71237;DHT22;58984;51.960;5.582;2023-07-13T10:36:46;25.20;53.90
71237;DHT22;58984;51.960;5.582;2023-07-13T10:39:21;25.20;53.90
71237;DHT22;58984;51.960;5.582;2023-07-13T10:42:00;25.20;53.50
71237;DHT22;58984;51.960;5.582;2023-07-13T10:44:29;25.20;53.50
71237;DHT22;58984;51.960;5.582;2023-07-13T10:47:18;25.30;53.50
71237;DHT22;58984;51.960;5.582;2023-07-13T10:49:44;25.30;53.50
71237;DHT22;58984;51.960;5.582;2023-07-13T10:52:49;25.40;53.50
71237;DHT22;58984;51.960;5.582;2023-07-13T11:03:26;25.50;53.70
71237;DHT22;58984;51.960;5.582;2023-07-13T11:08:56;25.50;53.50
71237;DHT22;58984;51.960;5.582;2023-07-13T11:19:07;25.60;53.40
71237;DHT22;58984;51.960;5.582;2023-07-13T11:21:34;25.80;53.50
71237;DHT22;58984;51.960;5.582;2023-07-13T11:31:57;25.80;53.30
71237;DHT22;58984;51.960;5.582;2023-07-13T11:34:27;25.90;53.20
71237;DHT22;58984;51.960;5.582;2023-07-13T11:36:54;25.90;53.20
71237;DHT22;58984;51.960;5.582;2023-07-13T11:39:35;26.00;53.20
71237;DHT22;58984;51.960;5.582;2023-07-13T11:42:13;26.00;53.20
71237;DHT22;58984;51.960;5.582;2023-07-13T11:44:46;26.10;53.30
71237;DHT22;58984;51.960;5.582;2023-07-13T11:47:19;26.10;53.20
71237;DHT22;58984;51.960;5.582;2023-07-13T11:49:55;26.20;53.30
71237;DHT22;58984;51.960;5.582;2023-07-13T11:52:51;26.20;52.90
71237;DHT22;58984;51.960;5.582;2023-07-13T11:55:21;26.10;53.20
71237;DHT22;58984;51.960;5.582;2023-07-13T11:57:58;26.20;52.90
71237;DHT22;58984;51.960;5.582;2023-07-13T12:00:32;26.20;53.20
71237;DHT22;58984;51.960;5.582;2023-07-13T12:03:00;26.10;53.20
71237;DHT22;58984;51.960;5.582;2023-07-13T12:05:27;26.20;53.30
71237;DHT22;58984;51.960;5.582;2023-07-13T12:07:54;26.30;53.30
71237;DHT22;58984;51.960;5.582;2023-07-13T12:10:26;26.30;53.20
71237;DHT22;58984;51.960;5.582;2023-07-13T12:13:02;26.30;53.10
71237;DHT22;58984;51.960;5.582;2023-07-13T12:15:39;26.30;53.20
71237;DHT22;58984;51.960;5.582;2023-07-13T12:18:32;26.40;53.10
71237;DHT22;58984;51.960;5.582;2023-07-13T12:20:59;26.40;53.20
71237;DHT22;58984;51.960;5.582;2023-07-13T12:23:28;26.50;52.90
71237;DHT22;58984;51.960;5.582;2023-07-13T12:25:54;26.50;52.90
71237;DHT22;58984;51.960;5.582;2023-07-13T12:28:34;26.50;52.90
71237;DHT22;58984;51.960;5.582;2023-07-13T12:31:06;26.50;53.00
71237;DHT22;58984;51.960;5.582;2023-07-13T12:33:33;26.50;52.80
71237;DHT22;58984;51.960;5.582;2023-07-13T12:36:04;26.60;52.80
71237;DHT22;58984;51.960;5.582;2023-07-13T12:38:31;26.60;52.90
71237;DHT22;58984;51.960;5.582;2023-07-13T12:40:57;26.70;52.90
71237;DHT22;58984;51.960;5.582;2023-07-13T12:43:26;26.70;52.80
71237;DHT22;58984;51.960;5.582;2023-07-13T12:46:02;26.70;52.70
71237;DHT22;58984;51.960;5.582;2023-07-13T12:48:28;26.60;52.60
71237;DHT22;58984;51.960;5.582;2023-07-13T12:50:55;26.80;52.50
71237;DHT22;58984;51.960;5.582;2023-07-13T12:53:23;26.70;52.40
71237;DHT22;58984;51.960;5.582;2023-07-13T12:55:55;26.80;52.50
71237;DHT22;58984;51.960;5.582;2023-07-13T12:58:30;26.80;52.50
71237;DHT22;58984;51.960;5.582;2023-07-13T13:00:59;26.80;52.50
71237;DHT22;58984;51.960;5.582;2023-07-13T13:03:30;26.90;52.40
71237;DHT22;58984;51.960;5.582;2023-07-13T13:06:17;26.90;52.60
71237;DHT22;58984;51.960;5.582;2023-07-13T13:08:46;26.90;52.50
71237;DHT22;58984;51.960;5.582;2023-07-13T13:11:14;27.00;52.40
71237;DHT22;58984;51.960;5.582;2023-07-13T13:13:44;26.90;52.20
71237;DHT22;58984;51.960;5.582;2023-07-13T13:16:33;27.00;52.40
71237;DHT22;58984;51.960;5.582;2023-07-13T13:19:14;27.00;52.40
71237;DHT22;58984;51.960;5.582;2023-07-13T13:21:42;26.90;52.20
71237;DHT22;58984;51.960;5.582;2023-07-13T13:24:16;27.10;52.30
71237;DHT22;58984;51.960;5.582;2023-07-13T13:26:43;27.00;52.30
71237;DHT22;58984;51.960;5.582;2023-07-13T13:29:22;27.00;52.20
71237;DHT22;58984;51.960;5.582;2023-07-13T13:31:50;27.10;52.30
71237;DHT22;58984;51.960;5.582;2023-07-13T13:34:18;27.10;52.30
71237;DHT22;58984;51.960;5.582;2023-07-13T13:36:46;27.10;52.30
71237;DHT22;58984;51.960;5.582;2023-07-13T13:39:24;27.10;52.20
71237;DHT22;58984;51.960;5.582;2023-07-13T13:41:51;27.10;52.30
71237;DHT22;58984;51.960;5.582;2023-07-13T13:44:19;27.20;52.30
71237;DHT22;58984;51.960;5.582;2023-07-13T13:46:47;27.20;50.30
71237;DHT22;58984;51.960;5.582;2023-07-13T13:49:19;27.30;50.20
71237;DHT22;58984;51.960;5.582;2023-07-13T13:51:46;27.20;50.50
71237;DHT22;58984;51.960;5.582;2023-07-13T13:54:13;27.30;50.50
71237;DHT22;58984;51.960;5.582;2023-07-13T13:56:44;27.30;50.80
71237;DHT22;58984;51.960;5.582;2023-07-13T13:59:11;27.30;50.80
71237;DHT22;58984;51.960;5.582;2023-07-13T14:01:37;27.30;50.80
71237;DHT22;58984;51.960;5.582;2023-07-13T14:04:04;27.30;50.60
71237;DHT22;58984;51.960;5.582;2023-07-13T14:06:31;27.30;50.80
71237;DHT22;58984;51.960;5.582;2023-07-13T14:08:59;27.30;50.80
71237;DHT22;58984;51.960;5.582;2023-07-13T14:11:25;27.40;50.70
71237;DHT22;58984;51.960;5.582;2023-07-13T14:13:56;27.40;50.80
71237;DHT22;58984;51.960;5.582;2023-07-13T14:16:27;27.30;50.80
71237;DHT22;58984;51.960;5.582;2023-07-13T14:18:55;27.30;51.30
71237;DHT22;58984;51.960;5.582;2023-07-13T14:21:24;27.40;50.70
71237;DHT22;58984;51.960;5.582;2023-07-13T14:23:55;27.40;51.30
71237;DHT22;58984;51.960;5.582;2023-07-13T14:26:23;27.40;50.70
71237;DHT22;58984;51.960;5.582;2023-07-13T14:28:56;27.40;50.60
71237;DHT22;58984;51.960;5.582;2023-07-13T14:31:24;27.30;50.70
71237;DHT22;58984;51.960;5.582;2023-07-13T14:33:50;27.40;50.70
71237;DHT22;58984;51.960;5.582;2023-07-13T14:36:36;27.40;50.80
71237;DHT22;58984;51.960;5.582;2023-07-13T14:39:21;27.30;50.80
71237;DHT22;58984;51.960;5.582;2023-07-13T14:41:55;27.30;51.40
71237;DHT22;58984;51.960;5.582;2023-07-13T14:44:40;27.40;50.80
71237;DHT22;58984;51.960;5.582;2023-07-13T14:47:07;27.40;50.70
71237;DHT22;58984;51.960;5.582;2023-07-13T14:49:41;27.40;49.90
71237;DHT22;58984;51.960;5.582;2023-07-13T14:52:19;27.40;49.80
71237;DHT22;58984;51.960;5.582;2023-07-13T14:54:46;27.30;49.90
71237;DHT22;58984;51.960;5.582;2023-07-13T14:57:14;27.40;50.00
71237;DHT22;58984;51.960;5.582;2023-07-13T14:59:43;27.40;50.20
71237;DHT22;58984;51.960;5.582;2023-07-13T15:02:30;27.40;50.20
71237;DHT22;58984;51.960;5.582;2023-07-13T15:05:04;27.30;50.10
71237;DHT22;58984;51.960;5.582;2023-07-13T15:07:30;27.40;50.10
71237;DHT22;58984;51.960;5.582;2023-07-13T15:09:56;27.40;50.00
71237;DHT22;58984;51.960;5.582;2023-07-13T15:12:22;27.40;49.90
71237;DHT22;58984;51.960;5.582;2023-07-13T15:14:48;27.40;49.90
71237;DHT22;58984;51.960;5.582;2023-07-13T15:17:39;27.40;49.80
71237;DHT22;58984;51.960;5.582;2023-07-13T15:22:51;27.30;49.70
71237;DHT22;58984;51.960;5.582;2023-07-13T15:25:21;27.40;49.60
71237;DHT22;58984;51.960;5.582;2023-07-13T15:27:47;27.30;49.60
71237;DHT22;58984;51.960;5.582;2023-07-13T15:30:29;27.30;49.60
71237;DHT22;58984;51.960;5.582;2023-07-13T15:32:58;27.20;49.80
71237;DHT22;58984;51.960;5.582;2023-07-13T15:35:33;27.30;49.70
71237;DHT22;58984;51.960;5.582;2023-07-13T15:37:59;27.30;49.70
71237;DHT22;58984;51.960;5.582;2023-07-13T15:40:24;27.30;49.80
71237;DHT22;58984;51.960;5.582;2023-07-13T15:42:50;27.30;49.70
71237;DHT22;58984;51.960;5.582;2023-07-13T15:45:22;27.30;49.90
71237;DHT22;58984;51.960;5.582;2023-07-13T15:47:49;27.20;49.80
71237;DHT22;58984;51.960;5.582;2023-07-13T15:50:17;27.20;49.80
71237;DHT22;58984;51.960;5.582;2023-07-13T15:52:47;27.20;49.90
71237;DHT22;58984;51.960;5.582;2023-07-13T15:55:14;27.20;49.80
71237;DHT22;58984;51.960;5.582;2023-07-13T15:57:47;27.20;49.90
71237;DHT22;58984;51.960;5.582;2023-07-13T16:02:48;27.20;49.90
71237;DHT22;58984;51.960;5.582;2023-07-13T16:05:18;27.20;50.00
71237;DHT22;58984;51.960;5.582;2023-07-13T16:07:51;27.20;49.90
71237;DHT22;58984;51.960;5.582;2023-07-13T16:10:34;27.20;49.80
71237;DHT22;58984;51.960;5.582;2023-07-13T16:13:03;27.10;49.90
71237;DHT22;58984;51.960;5.582;2023-07-13T16:15:30;27.20;49.80
71237;DHT22;58984;51.960;5.582;2023-07-13T16:18:04;27.20;49.80
71237;DHT22;58984;51.960;5.582;2023-07-13T16:20:30;27.20;49.80
71237;DHT22;58984;51.960;5.582;2023-07-13T16:22:59;27.20;49.80
71237;DHT22;58984;51.960;5.582;2023-07-13T16:25:36;27.20;49.80
71237;DHT22;58984;51.960;5.582;2023-07-13T16:28:26;27.20;49.90
71237;DHT22;58984;51.960;5.582;2023-07-13T16:31:14;27.10;49.70
71237;DHT22;58984;51.960;5.582;2023-07-13T16:33:46;27.10;49.90
71237;DHT22;58984;51.960;5.582;2023-07-13T16:36:20;27.20;49.70
71237;DHT22;58984;51.960;5.582;2023-07-13T16:38:50;27.20;49.70
71237;DHT22;58984;51.960;5.582;2023-07-13T16:41:22;27.10;49.80
71237;DHT22;58984;51.960;5.582;2023-07-13T16:44:16;27.10;49.70